N60CG MYNN-MDPC
Flight info
| Callsign | N60CG |
|---|---|
| Flight time | 2h 17m |
| Altitude | 25000 |
| Route | LEPAS A555 GTK L216 LERED POKEG |
| Aircraft | TBM9/L-VGDW/C |
Departure
| Time | 2026-05-06 22:18 |
|---|---|
| Airport | Lynden Pindling International Airport (MYNN) |
Arrival
| Time | 2026-05-07 00:35 |
|---|---|
| Airport | Punta Cana International Airport (MDPC) |
| Time | Latitude | Longitude | Altitude | Speed | Heading |
|---|---|---|---|---|---|
| 2026-05-06 22:07 | 25.03088 | -77.45562 | 16 ft | 0 kts | 51° |
| 2026-05-06 22:15 | 25.03088 | -77.45563 | 16 ft | 1 kts | 51° |
| 2026-05-06 22:15 | 25.03082 | -77.45569 | 16 ft | 1 kts | 27° |
| 2026-05-06 22:15 | 25.03078 | -77.45571 | 16 ft | 0 kts | 7° |
| 2026-05-06 22:16 | 25.03080 | -77.45571 | 16 ft | 1 kts | 7° |
| 2026-05-06 22:16 | 25.03111 | -77.45597 | 16 ft | 10 kts | 312° |
| 2026-05-06 22:16 | 25.03166 | -77.45666 | 16 ft | 12 kts | 318° |
| 2026-05-06 22:17 | 25.03264 | -77.45679 | 16 ft | 18 kts | 25° |
| 2026-05-06 22:17 | 25.03364 | -77.45639 | 15 ft | 17 kts | 17° |
| 2026-05-06 22:17 | 25.03479 | -77.45680 | 15 ft | 25 kts | 316° |
| 2026-05-06 22:17 | 25.03714 | -77.45944 | 18 ft | 74 kts | 316° |
| 2026-05-06 22:18 | 25.04186 | -77.46468 | 17 ft | 117 kts | 313° |
| 2026-05-06 22:18 | 25.04819 | -77.47177 | 172 ft | 140 kts | 316° |
| 2026-05-06 22:18 | 25.05628 | -77.47843 | 499 ft | 151 kts | 330° |
| 2026-05-06 22:18 | 25.06531 | -77.48424 | 1026 ft | 145 kts | 336° |
| 2026-05-06 22:19 | 25.07591 | -77.48570 | 1187 ft | 156 kts | 14° |
| 2026-05-06 22:19 | 25.08614 | -77.48429 | 1618 ft | 154 kts | 354° |
| 2026-05-06 22:19 | 25.09653 | -77.48233 | 1945 ft | 155 kts | 34° |
| 2026-05-06 22:19 | 25.10418 | -77.47399 | 2312 ft | 156 kts | 53° |
| 2026-05-06 22:20 | 25.10660 | -77.46255 | 2690 ft | 160 kts | 101° |
| 2026-05-06 22:20 | 25.10289 | -77.45086 | 3063 ft | 163 kts | 110° |
| 2026-05-06 22:20 | 25.09896 | -77.43907 | 3443 ft | 164 kts | 109° |
| 2026-05-06 22:20 | 25.09528 | -77.42708 | 3835 ft | 166 kts | 108° |
| 2026-05-06 22:21 | 25.09163 | -77.41494 | 4243 ft | 167 kts | 108° |
| 2026-05-06 22:21 | 25.08804 | -77.40273 | 4652 ft | 168 kts | 108° |
| 2026-05-06 22:21 | 25.08448 | -77.39037 | 5042 ft | 170 kts | 108° |
| 2026-05-06 22:21 | 25.08088 | -77.37790 | 5411 ft | 172 kts | 108° |
| 2026-05-06 22:22 | 25.07728 | -77.36528 | 5832 ft | 173 kts | 108° |
| 2026-05-06 22:22 | 25.07365 | -77.35249 | 6289 ft | 175 kts | 108° |
| 2026-05-06 22:22 | 25.07009 | -77.33975 | 6742 ft | 177 kts | 108° |
| 2026-05-06 22:22 | 25.06643 | -77.32671 | 7167 ft | 179 kts | 108° |
| 2026-05-06 22:23 | 25.06272 | -77.31357 | 7610 ft | 179 kts | 108° |
| 2026-05-06 22:23 | 25.05896 | -77.30040 | 8038 ft | 181 kts | 108° |
| 2026-05-06 22:23 | 25.05515 | -77.28709 | 8475 ft | 182 kts | 108° |
| 2026-05-06 22:23 | 25.05130 | -77.27370 | 8866 ft | 183 kts | 108° |
| 2026-05-06 22:24 | 25.04740 | -77.26021 | 9243 ft | 185 kts | 108° |
| 2026-05-06 22:24 | 25.04349 | -77.24668 | 9627 ft | 186 kts | 108° |
| 2026-05-06 22:24 | 25.03958 | -77.23321 | 10001 ft | 187 kts | 108° |
| 2026-05-06 22:24 | 25.03558 | -77.21949 | 10347 ft | 188 kts | 108° |
| 2026-05-06 22:25 | 25.03155 | -77.20571 | 10689 ft | 189 kts | 108° |
| 2026-05-06 22:25 | 25.02742 | -77.19184 | 11028 ft | 191 kts | 108° |
| 2026-05-06 22:25 | 25.02325 | -77.17796 | 11374 ft | 192 kts | 108° |
| 2026-05-06 22:25 | 25.01897 | -77.16391 | 11720 ft | 193 kts | 108° |
| 2026-05-06 22:26 | 25.01465 | -77.14978 | 12062 ft | 195 kts | 108° |
| 2026-05-06 22:26 | 25.01027 | -77.13564 | 12406 ft | 196 kts | 108° |
| 2026-05-06 22:26 | 25.00583 | -77.12137 | 12756 ft | 197 kts | 108° |
| 2026-05-06 22:26 | 25.00137 | -77.10718 | 13102 ft | 199 kts | 108° |
| 2026-05-06 22:27 | 24.99679 | -77.09274 | 13454 ft | 200 kts | 108° |
| 2026-05-06 22:27 | 24.99214 | -77.07818 | 13807 ft | 202 kts | 108° |
| 2026-05-06 22:27 | 24.98744 | -77.06356 | 14124 ft | 203 kts | 108° |
| 2026-05-06 22:27 | 24.98266 | -77.04887 | 14424 ft | 204 kts | 108° |
| 2026-05-06 22:28 | 24.97781 | -77.03405 | 14733 ft | 206 kts | 108° |
| 2026-05-06 22:28 | 24.97186 | -77.01968 | 15034 ft | 208 kts | 127° |
| 2026-05-06 22:28 | 24.96187 | -77.00803 | 15337 ft | 210 kts | 135° |
| 2026-05-06 22:28 | 24.95132 | -76.99681 | 15638 ft | 211 kts | 136° |
| 2026-05-06 22:29 | 24.93875 | -76.98921 | 15925 ft | 210 kts | 170° |
| 2026-05-06 22:29 | 24.92432 | -76.98631 | 16219 ft | 212 kts | 168° |
| 2026-05-06 22:29 | 24.91034 | -76.98067 | 16523 ft | 215 kts | 157° |
| 2026-05-06 22:29 | 24.89666 | -76.97369 | 16834 ft | 217 kts | 156° |
| 2026-05-06 22:30 | 24.88284 | -76.96691 | 17136 ft | 218 kts | 158° |
| 2026-05-06 22:30 | 24.86885 | -76.96027 | 17439 ft | 220 kts | 158° |
| 2026-05-06 22:30 | 24.85475 | -76.95358 | 17751 ft | 221 kts | 158° |
| 2026-05-06 22:30 | 24.84058 | -76.94682 | 18068 ft | 223 kts | 158° |
| 2026-05-06 22:31 | 24.82631 | -76.94002 | 18367 ft | 224 kts | 158° |
| 2026-05-06 22:31 | 24.81192 | -76.93316 | 18636 ft | 225 kts | 158° |
| 2026-05-06 22:31 | 24.79766 | -76.92637 | 18896 ft | 227 kts | 158° |
| 2026-05-06 22:31 | 24.78310 | -76.91943 | 19163 ft | 228 kts | 158° |
| 2026-05-06 22:32 | 24.76849 | -76.91247 | 19433 ft | 229 kts | 158° |
| 2026-05-06 22:32 | 24.75384 | -76.90550 | 19703 ft | 230 kts | 158° |
| 2026-05-06 22:32 | 24.73905 | -76.89846 | 19967 ft | 232 kts | 159° |
| 2026-05-06 22:32 | 24.72420 | -76.89140 | 20236 ft | 233 kts | 159° |
| 2026-05-06 22:33 | 24.70928 | -76.88430 | 20504 ft | 234 kts | 159° |
| 2026-05-06 22:33 | 24.69428 | -76.87717 | 20772 ft | 236 kts | 159° |
| 2026-05-06 22:33 | 24.67916 | -76.86997 | 21044 ft | 237 kts | 159° |
| 2026-05-06 22:33 | 24.66415 | -76.86284 | 21311 ft | 238 kts | 159° |
| 2026-05-06 22:34 | 24.64888 | -76.85555 | 21595 ft | 240 kts | 158° |
| 2026-05-06 22:34 | 24.63506 | -76.84527 | 21853 ft | 243 kts | 136° |
| 2026-05-06 22:34 | 24.62443 | -76.83081 | 22112 ft | 244 kts | 124° |
| 2026-05-06 22:34 | 24.61450 | -76.81555 | 22378 ft | 246 kts | 125° |
| 2026-05-06 22:35 | 24.60443 | -76.80026 | 22650 ft | 248 kts | 125° |
| 2026-05-06 22:35 | 24.59431 | -76.78485 | 22921 ft | 249 kts | 125° |
| 2026-05-06 22:35 | 24.58411 | -76.76930 | 23181 ft | 251 kts | 125° |
| 2026-05-06 22:35 | 24.57386 | -76.75368 | 23449 ft | 253 kts | 125° |
| 2026-05-06 22:36 | 24.56353 | -76.73796 | 23698 ft | 255 kts | 125° |
| 2026-05-06 22:36 | 24.55314 | -76.72215 | 23921 ft | 256 kts | 125° |
| 2026-05-06 22:36 | 24.54270 | -76.70626 | 24148 ft | 257 kts | 125° |
| 2026-05-06 22:36 | 24.53219 | -76.69027 | 24374 ft | 258 kts | 125° |
| 2026-05-06 22:37 | 24.52164 | -76.67423 | 24605 ft | 260 kts | 125° |
| 2026-05-06 22:37 | 24.51104 | -76.65812 | 24827 ft | 261 kts | 125° |
| 2026-05-06 22:37 | 24.50050 | -76.64210 | 25041 ft | 263 kts | 125° |
| 2026-05-06 22:37 | 24.48954 | -76.62546 | 25061 ft | 275 kts | 125° |
| 2026-05-06 22:38 | 24.47810 | -76.60809 | 25071 ft | 285 kts | 125° |
| 2026-05-06 22:38 | 24.46629 | -76.59017 | 25073 ft | 294 kts | 125° |
| 2026-05-06 22:38 | 24.45416 | -76.57175 | 25073 ft | 301 kts | 125° |
| 2026-05-06 22:38 | 24.44173 | -76.55289 | 25073 ft | 307 kts | 125° |
| 2026-05-06 22:39 | 24.42911 | -76.53376 | 25071 ft | 312 kts | 125° |
| 2026-05-06 22:39 | 24.41630 | -76.51435 | 25073 ft | 316 kts | 125° |
| 2026-05-06 22:39 | 24.40332 | -76.49468 | 25072 ft | 320 kts | 125° |
| 2026-05-06 22:39 | 24.39016 | -76.47474 | 25071 ft | 323 kts | 125° |
| 2026-05-06 22:40 | 24.37691 | -76.45469 | 25070 ft | 326 kts | 125° |
| 2026-05-06 22:40 | 24.36357 | -76.43451 | 25072 ft | 327 kts | 125° |
| 2026-05-06 22:40 | 24.35020 | -76.41429 | 25070 ft | 329 kts | 125° |
| 2026-05-06 22:40 | 24.33689 | -76.39416 | 25071 ft | 330 kts | 126° |
| 2026-05-06 22:41 | 24.30982 | -76.35327 | 25073 ft | 332 kts | 126° |
| 2026-05-06 22:41 | 24.29623 | -76.33273 | 25074 ft | 332 kts | 126° |
| 2026-05-06 22:41 | 24.28264 | -76.31222 | 25072 ft | 333 kts | 126° |
| 2026-05-06 22:42 | 24.26900 | -76.29164 | 25073 ft | 333 kts | 126° |
| 2026-05-06 22:42 | 24.25534 | -76.27104 | 25073 ft | 333 kts | 126° |
| 2026-05-06 22:42 | 24.24188 | -76.25075 | 25072 ft | 334 kts | 126° |
| 2026-05-06 22:42 | 24.22823 | -76.23017 | 25076 ft | 334 kts | 126° |
| 2026-05-06 22:43 | 24.21453 | -76.20954 | 25073 ft | 334 kts | 126° |
| 2026-05-06 22:43 | 24.20082 | -76.18890 | 25073 ft | 334 kts | 126° |
| 2026-05-06 22:43 | 24.18714 | -76.16831 | 25074 ft | 334 kts | 126° |
| 2026-05-06 22:43 | 24.17343 | -76.14768 | 25071 ft | 334 kts | 126° |
| 2026-05-06 22:44 | 24.15971 | -76.12705 | 25072 ft | 335 kts | 126° |
| 2026-05-06 22:44 | 24.14601 | -76.10645 | 25072 ft | 335 kts | 126° |
| 2026-05-06 22:44 | 24.13230 | -76.08586 | 25074 ft | 335 kts | 126° |
| 2026-05-06 22:44 | 24.11858 | -76.06525 | 25074 ft | 335 kts | 126° |
| 2026-05-06 22:45 | 24.10484 | -76.04462 | 25075 ft | 335 kts | 126° |
| 2026-05-06 22:45 | 24.09130 | -76.02430 | 25074 ft | 335 kts | 126° |
| 2026-05-06 22:45 | 24.07754 | -76.00367 | 25073 ft | 335 kts | 126° |
| 2026-05-06 22:45 | 24.06381 | -75.98308 | 25074 ft | 335 kts | 126° |
| 2026-05-06 22:46 | 24.05007 | -75.96249 | 25076 ft | 335 kts | 126° |
| 2026-05-06 22:46 | 24.03633 | -75.94189 | 25076 ft | 335 kts | 126° |
| 2026-05-06 22:46 | 24.02258 | -75.92131 | 25073 ft | 335 kts | 126° |
| 2026-05-06 22:46 | 24.00879 | -75.90067 | 25073 ft | 335 kts | 126° |
| 2026-05-06 22:47 | 23.99964 | -75.88698 | 25072 ft | 335 kts | 127° |
| 2026-05-06 22:47 | 23.98587 | -75.86638 | 25074 ft | 335 kts | 127° |
| 2026-05-06 22:47 | 23.97210 | -75.84579 | 25074 ft | 335 kts | 127° |
| 2026-05-06 22:47 | 23.95832 | -75.82521 | 25077 ft | 335 kts | 127° |
| 2026-05-06 22:48 | 23.94454 | -75.80462 | 25077 ft | 336 kts | 127° |
| 2026-05-06 22:48 | 23.93072 | -75.78399 | 25078 ft | 336 kts | 127° |
| 2026-05-06 22:48 | 23.91691 | -75.76336 | 25078 ft | 336 kts | 127° |
| 2026-05-06 22:48 | 23.90326 | -75.74301 | 25073 ft | 336 kts | 127° |
| 2026-05-06 22:49 | 23.88931 | -75.72220 | 25073 ft | 336 kts | 127° |
| 2026-05-06 22:49 | 23.87565 | -75.70184 | 25073 ft | 336 kts | 127° |
| 2026-05-06 22:49 | 23.86185 | -75.68126 | 25072 ft | 336 kts | 127° |
| 2026-05-06 22:49 | 23.84803 | -75.66068 | 25074 ft | 336 kts | 127° |
| 2026-05-06 22:50 | 23.83425 | -75.64015 | 25073 ft | 336 kts | 127° |
| 2026-05-06 22:50 | 23.82036 | -75.61949 | 25073 ft | 336 kts | 127° |
| 2026-05-06 22:50 | 23.80653 | -75.59891 | 25072 ft | 336 kts | 127° |
| 2026-05-06 22:50 | 23.79270 | -75.57834 | 25075 ft | 336 kts | 127° |
| 2026-05-06 22:51 | 23.77883 | -75.55772 | 25073 ft | 336 kts | 127° |
| 2026-05-06 22:51 | 23.76501 | -75.53720 | 25072 ft | 336 kts | 127° |
| 2026-05-06 22:51 | 23.75113 | -75.51658 | 25074 ft | 336 kts | 127° |
| 2026-05-06 22:51 | 23.73743 | -75.49624 | 25079 ft | 336 kts | 127° |
| 2026-05-06 22:52 | 23.72357 | -75.47567 | 25077 ft | 336 kts | 127° |
| 2026-05-06 22:52 | 23.70970 | -75.45509 | 25077 ft | 337 kts | 127° |
| 2026-05-06 22:52 | 23.69580 | -75.43447 | 25076 ft | 337 kts | 127° |
| 2026-05-06 22:52 | 23.68192 | -75.41390 | 25074 ft | 337 kts | 127° |
| 2026-05-06 22:53 | 23.66803 | -75.39332 | 25075 ft | 337 kts | 127° |
| 2026-05-06 22:53 | 23.65411 | -75.37270 | 25072 ft | 337 kts | 127° |
| 2026-05-06 22:53 | 23.64024 | -75.35217 | 25072 ft | 337 kts | 127° |
| 2026-05-06 22:53 | 23.62634 | -75.33160 | 25075 ft | 337 kts | 127° |
| 2026-05-06 22:54 | 23.61243 | -75.31103 | 25076 ft | 337 kts | 127° |
| 2026-05-06 22:54 | 23.59849 | -75.29040 | 25076 ft | 337 kts | 127° |
| 2026-05-06 22:54 | 23.58457 | -75.26981 | 25076 ft | 337 kts | 127° |
| 2026-05-06 22:54 | 23.57248 | -75.24791 | 25077 ft | 338 kts | 118° |
| 2026-05-06 22:55 | 23.56139 | -75.22535 | 25077 ft | 338 kts | 118° |
| 2026-05-06 22:55 | 23.55010 | -75.20290 | 25080 ft | 338 kts | 119° |
| 2026-05-06 22:55 | 23.53879 | -75.18046 | 25076 ft | 338 kts | 118° |
| 2026-05-06 22:55 | 23.52753 | -75.15793 | 25078 ft | 338 kts | 118° |
| 2026-05-06 22:56 | 23.51630 | -75.13545 | 25077 ft | 338 kts | 118° |
| 2026-05-06 22:56 | 23.50519 | -75.11328 | 25079 ft | 338 kts | 118° |
| 2026-05-06 22:56 | 23.49392 | -75.09081 | 25077 ft | 338 kts | 118° |
| 2026-05-06 22:56 | 23.48265 | -75.06835 | 24995 ft | 338 kts | 118° |
| 2026-05-06 22:57 | 23.47148 | -75.04612 | 25056 ft | 331 kts | 115° |
| 2026-05-06 22:57 | 23.46051 | -75.02424 | 25062 ft | 328 kts | 115° |
| 2026-05-06 22:57 | 23.44962 | -75.00254 | 25063 ft | 325 kts | 115° |
| 2026-05-06 22:57 | 23.43875 | -74.98092 | 25062 ft | 324 kts | 115° |
| 2026-05-06 22:58 | 23.42796 | -74.95946 | 25061 ft | 323 kts | 115° |
| 2026-05-06 22:58 | 23.41720 | -74.93806 | 25057 ft | 322 kts | 115° |
| 2026-05-06 22:58 | 23.40647 | -74.91672 | 25059 ft | 321 kts | 115° |
| 2026-05-06 22:58 | 23.39575 | -74.89543 | 25058 ft | 320 kts | 115° |
| 2026-05-06 22:59 | 23.38505 | -74.87417 | 25058 ft | 320 kts | 115° |
| 2026-05-06 22:59 | 23.37433 | -74.85289 | 25058 ft | 320 kts | 115° |
| 2026-05-06 22:59 | 23.36364 | -74.83167 | 25061 ft | 319 kts | 115° |
| 2026-05-06 22:59 | 23.35295 | -74.81048 | 25058 ft | 319 kts | 115° |
| 2026-05-06 23:00 | 23.34241 | -74.78958 | 25061 ft | 319 kts | 115° |
| 2026-05-06 23:00 | 23.33170 | -74.76837 | 25062 ft | 319 kts | 114° |
| 2026-05-06 23:00 | 23.32100 | -74.74715 | 25061 ft | 319 kts | 115° |
| 2026-05-06 23:00 | 23.31029 | -74.72595 | 25063 ft | 319 kts | 114° |
| 2026-05-06 23:01 | 23.29961 | -74.70481 | 25062 ft | 319 kts | 114° |
| 2026-05-06 23:01 | 23.28890 | -74.68362 | 25063 ft | 319 kts | 114° |
| 2026-05-06 23:01 | 23.27833 | -74.66271 | 25061 ft | 319 kts | 114° |
| 2026-05-06 23:01 | 23.26763 | -74.64157 | 25072 ft | 319 kts | 114° |
| 2026-05-06 23:02 | 23.25693 | -74.62043 | 25071 ft | 319 kts | 115° |
| 2026-05-06 23:02 | 23.24622 | -74.59929 | 25068 ft | 319 kts | 115° |
| 2026-05-06 23:02 | 23.23552 | -74.57815 | 25071 ft | 319 kts | 115° |
| 2026-05-06 23:02 | 23.22481 | -74.55702 | 25069 ft | 319 kts | 115° |
| 2026-05-06 23:03 | 23.21410 | -74.53588 | 25069 ft | 319 kts | 115° |
| 2026-05-06 23:03 | 23.20335 | -74.51470 | 25070 ft | 319 kts | 115° |
| 2026-05-06 23:03 | 23.19263 | -74.49357 | 25072 ft | 319 kts | 115° |
| 2026-05-06 23:03 | 23.18203 | -74.47267 | 25071 ft | 319 kts | 115° |
| 2026-05-06 23:04 | 23.17129 | -74.45154 | 25072 ft | 319 kts | 115° |
| 2026-05-06 23:04 | 23.16055 | -74.43038 | 25070 ft | 319 kts | 115° |
| 2026-05-06 23:04 | 23.14983 | -74.40931 | 25068 ft | 319 kts | 115° |
| 2026-05-06 23:04 | 23.13909 | -74.38818 | 25072 ft | 319 kts | 115° |
| 2026-05-06 23:05 | 23.12826 | -74.36705 | 25074 ft | 320 kts | 115° |
| 2026-05-06 23:05 | 23.11737 | -74.34599 | 25073 ft | 320 kts | 115° |
| 2026-05-06 23:05 | 23.10648 | -74.32489 | 25071 ft | 320 kts | 115° |
| 2026-05-06 23:05 | 23.09566 | -74.30387 | 25073 ft | 320 kts | 115° |
| 2026-05-06 23:06 | 23.08478 | -74.28276 | 25070 ft | 320 kts | 115° |
| 2026-05-06 23:06 | 23.07390 | -74.26164 | 25072 ft | 320 kts | 115° |
| 2026-05-06 23:06 | 23.06299 | -74.24053 | 25073 ft | 320 kts | 115° |
| 2026-05-06 23:06 | 23.05213 | -74.21947 | 25072 ft | 320 kts | 115° |
| 2026-05-06 23:07 | 23.04137 | -74.19864 | 25072 ft | 320 kts | 115° |
| 2026-05-06 23:07 | 23.03049 | -74.17758 | 25074 ft | 320 kts | 115° |
| 2026-05-06 23:07 | 23.01961 | -74.15653 | 25073 ft | 320 kts | 115° |
| 2026-05-06 23:07 | 23.00873 | -74.13548 | 25075 ft | 320 kts | 115° |
| 2026-05-06 23:08 | 22.99783 | -74.11443 | 25075 ft | 320 kts | 115° |
| 2026-05-06 23:08 | 22.98694 | -74.09337 | 25077 ft | 320 kts | 115° |
| 2026-05-06 23:08 | 22.97604 | -74.07232 | 25077 ft | 320 kts | 115° |
| 2026-05-06 23:08 | 22.96511 | -74.05121 | 25074 ft | 320 kts | 115° |
| 2026-05-06 23:09 | 22.95420 | -74.03016 | 25076 ft | 320 kts | 115° |
| 2026-05-06 23:09 | 22.94326 | -74.00906 | 25076 ft | 320 kts | 115° |
| 2026-05-06 23:09 | 22.93232 | -73.98795 | 25075 ft | 320 kts | 115° |
| 2026-05-06 23:09 | 22.92140 | -73.96690 | 25075 ft | 320 kts | 115° |
| 2026-05-06 23:10 | 22.91048 | -73.94584 | 25077 ft | 320 kts | 115° |
| 2026-05-06 23:10 | 22.89954 | -73.92479 | 25075 ft | 320 kts | 115° |
| 2026-05-06 23:10 | 22.88861 | -73.90374 | 25075 ft | 320 kts | 115° |
| 2026-05-06 23:10 | 22.87779 | -73.88292 | 25077 ft | 321 kts | 115° |
| 2026-05-06 23:11 | 22.86684 | -73.86185 | 25079 ft | 321 kts | 115° |
| 2026-05-06 23:11 | 22.85589 | -73.84079 | 25075 ft | 321 kts | 115° |
| 2026-05-06 23:11 | 22.84493 | -73.81973 | 25074 ft | 321 kts | 115° |
| 2026-05-06 23:11 | 22.83397 | -73.79867 | 25075 ft | 321 kts | 115° |
| 2026-05-06 23:12 | 22.82296 | -73.77752 | 25074 ft | 321 kts | 115° |
| 2026-05-06 23:12 | 22.81199 | -73.75646 | 25073 ft | 321 kts | 115° |
| 2026-05-06 23:12 | 22.80101 | -73.73541 | 25075 ft | 321 kts | 115° |
| 2026-05-06 23:12 | 22.79001 | -73.71430 | 25076 ft | 321 kts | 115° |
| 2026-05-06 23:13 | 22.77918 | -73.69353 | 25077 ft | 321 kts | 115° |
| 2026-05-06 23:13 | 22.76817 | -73.67243 | 25076 ft | 321 kts | 115° |
| 2026-05-06 23:13 | 22.75718 | -73.65137 | 25071 ft | 321 kts | 115° |
| 2026-05-06 23:13 | 22.74616 | -73.63026 | 25072 ft | 321 kts | 115° |
| 2026-05-06 23:14 | 22.73517 | -73.60924 | 25074 ft | 321 kts | 115° |
| 2026-05-06 23:14 | 22.72417 | -73.58818 | 25075 ft | 321 kts | 115° |
| 2026-05-06 23:14 | 22.71316 | -73.56713 | 25072 ft | 321 kts | 116° |
| 2026-05-06 23:14 | 22.70215 | -73.54607 | 25075 ft | 321 kts | 116° |
| 2026-05-06 23:15 | 22.69111 | -73.52498 | 25075 ft | 321 kts | 116° |
| 2026-05-06 23:15 | 22.68007 | -73.50389 | 25075 ft | 321 kts | 116° |
| 2026-05-06 23:15 | 22.66907 | -73.48289 | 25076 ft | 321 kts | 116° |
| 2026-05-06 23:15 | 22.65802 | -73.46179 | 25074 ft | 321 kts | 116° |
| 2026-05-06 23:16 | 22.64699 | -73.44075 | 25073 ft | 321 kts | 116° |
| 2026-05-06 23:16 | 22.63610 | -73.41999 | 25076 ft | 321 kts | 116° |
| 2026-05-06 23:16 | 22.62507 | -73.39895 | 25073 ft | 321 kts | 116° |
| 2026-05-06 23:16 | 22.61400 | -73.37786 | 25072 ft | 321 kts | 116° |
| 2026-05-06 23:17 | 22.60296 | -73.35683 | 25073 ft | 321 kts | 116° |
| 2026-05-06 23:17 | 22.59189 | -73.33575 | 25073 ft | 321 kts | 116° |
| 2026-05-06 23:17 | 22.58084 | -73.31473 | 25073 ft | 321 kts | 116° |
| 2026-05-06 23:17 | 22.56979 | -73.29370 | 25076 ft | 321 kts | 116° |
| 2026-05-06 23:18 | 22.55874 | -73.27268 | 25076 ft | 321 kts | 116° |
| 2026-05-06 23:18 | 22.54765 | -73.25161 | 25075 ft | 321 kts | 116° |
| 2026-05-06 23:18 | 22.53659 | -73.23059 | 25072 ft | 321 kts | 116° |
| 2026-05-06 23:18 | 22.52552 | -73.20958 | 25077 ft | 322 kts | 116° |
| 2026-05-06 23:19 | 22.51460 | -73.18884 | 25075 ft | 322 kts | 116° |
| 2026-05-06 23:19 | 22.50353 | -73.16782 | 25073 ft | 322 kts | 116° |
| 2026-05-06 23:19 | 22.49243 | -73.14677 | 25074 ft | 322 kts | 116° |
| 2026-05-06 23:19 | 22.48135 | -73.12576 | 25075 ft | 322 kts | 116° |
| 2026-05-06 23:20 | 22.47024 | -73.10470 | 25076 ft | 322 kts | 116° |
| 2026-05-06 23:20 | 22.45915 | -73.08369 | 25074 ft | 322 kts | 116° |
| 2026-05-06 23:20 | 22.44816 | -73.06287 | 25077 ft | 322 kts | 116° |
| 2026-05-06 23:20 | 22.43694 | -73.04162 | 25080 ft | 322 kts | 116° |
| 2026-05-06 23:21 | 22.42581 | -73.02055 | 25076 ft | 322 kts | 116° |
| 2026-05-06 23:21 | 22.41483 | -72.99978 | 25077 ft | 323 kts | 116° |
| 2026-05-06 23:21 | 22.40368 | -72.97872 | 25076 ft | 323 kts | 116° |
| 2026-05-06 23:21 | 22.39251 | -72.95760 | 25076 ft | 323 kts | 116° |
| 2026-05-06 23:22 | 22.38136 | -72.93654 | 25074 ft | 323 kts | 116° |
| 2026-05-06 23:22 | 22.37022 | -72.91549 | 25077 ft | 323 kts | 115° |
| 2026-05-06 23:22 | 22.35907 | -72.89443 | 25073 ft | 323 kts | 116° |
| 2026-05-06 23:22 | 22.34790 | -72.87338 | 25073 ft | 323 kts | 116° |
| 2026-05-06 23:23 | 22.33671 | -72.85228 | 25075 ft | 323 kts | 115° |
| 2026-05-06 23:23 | 22.32556 | -72.83123 | 25076 ft | 323 kts | 116° |
| 2026-05-06 23:23 | 22.31439 | -72.81017 | 25075 ft | 323 kts | 115° |
| 2026-05-06 23:23 | 22.30318 | -72.78905 | 25074 ft | 323 kts | 115° |
| 2026-05-06 23:24 | 22.29201 | -72.76802 | 25076 ft | 324 kts | 116° |
| 2026-05-06 23:24 | 22.28081 | -72.74694 | 25077 ft | 324 kts | 115° |
| 2026-05-06 23:24 | 22.26961 | -72.72588 | 25076 ft | 323 kts | 115° |
| 2026-05-06 23:24 | 22.25842 | -72.70482 | 25075 ft | 323 kts | 115° |
| 2026-05-06 23:25 | 22.24734 | -72.68400 | 25076 ft | 323 kts | 115° |
| 2026-05-06 23:25 | 22.23635 | -72.66286 | 25074 ft | 322 kts | 112° |
| 2026-05-06 23:25 | 22.22615 | -72.64136 | 25076 ft | 322 kts | 113° |
| 2026-05-06 23:25 | 22.21576 | -72.61989 | 25075 ft | 322 kts | 113° |
| 2026-05-06 23:26 | 22.20536 | -72.59843 | 25075 ft | 322 kts | 113° |
| 2026-05-06 23:26 | 22.19504 | -72.57699 | 25072 ft | 322 kts | 112° |
| 2026-05-06 23:26 | 22.18470 | -72.55550 | 25073 ft | 322 kts | 113° |
| 2026-05-06 23:26 | 22.17434 | -72.53403 | 25074 ft | 322 kts | 113° |
| 2026-05-06 23:27 | 22.16403 | -72.51265 | 25074 ft | 322 kts | 113° |
| 2026-05-06 23:27 | 22.15369 | -72.49123 | 25074 ft | 322 kts | 112° |
| 2026-05-06 23:27 | 22.14335 | -72.46980 | 25075 ft | 322 kts | 112° |
| 2026-05-06 23:27 | 22.13312 | -72.44862 | 25074 ft | 322 kts | 113° |
| 2026-05-06 23:28 | 22.12215 | -72.42752 | 25076 ft | 323 kts | 115° |
| 2026-05-06 23:28 | 22.11114 | -72.40636 | 25074 ft | 323 kts | 114° |
| 2026-05-06 23:28 | 22.10020 | -72.38513 | 25075 ft | 323 kts | 114° |
| 2026-05-06 23:28 | 22.08919 | -72.36397 | 25073 ft | 323 kts | 115° |
| 2026-05-06 23:29 | 22.07831 | -72.34317 | 25073 ft | 323 kts | 115° |
| 2026-05-06 23:29 | 22.06730 | -72.32207 | 25070 ft | 323 kts | 115° |
| 2026-05-06 23:29 | 22.05629 | -72.30096 | 25070 ft | 323 kts | 115° |
| 2026-05-06 23:29 | 22.04528 | -72.27987 | 25069 ft | 323 kts | 115° |
| 2026-05-06 23:30 | 22.03427 | -72.25877 | 25069 ft | 323 kts | 115° |
| 2026-05-06 23:30 | 22.02322 | -72.23763 | 25067 ft | 323 kts | 115° |
| 2026-05-06 23:30 | 22.01217 | -72.21649 | 25069 ft | 323 kts | 115° |
| 2026-05-06 23:30 | 22.00117 | -72.19544 | 25067 ft | 323 kts | 115° |
| 2026-05-06 23:31 | 21.99009 | -72.17426 | 25067 ft | 323 kts | 115° |
| 2026-05-06 23:31 | 21.97908 | -72.15322 | 25066 ft | 323 kts | 115° |
| 2026-05-06 23:31 | 21.96817 | -72.13237 | 25066 ft | 323 kts | 115° |
| 2026-05-06 23:31 | 21.95700 | -72.11106 | 25066 ft | 323 kts | 115° |
| 2026-05-06 23:32 | 21.94608 | -72.09022 | 25068 ft | 323 kts | 115° |
| 2026-05-06 23:32 | 21.93506 | -72.06919 | 25067 ft | 323 kts | 114° |
| 2026-05-06 23:32 | 21.92399 | -72.04807 | 25067 ft | 323 kts | 114° |
| 2026-05-06 23:32 | 21.91293 | -72.02699 | 25071 ft | 323 kts | 114° |
| 2026-05-06 23:33 | 21.90186 | -72.00589 | 25071 ft | 323 kts | 114° |
| 2026-05-06 23:33 | 21.89078 | -71.98480 | 25074 ft | 324 kts | 114° |
| 2026-05-06 23:33 | 21.87970 | -71.96370 | 25074 ft | 324 kts | 114° |
| 2026-05-06 23:33 | 21.86857 | -71.94251 | 25074 ft | 324 kts | 114° |
| 2026-05-06 23:34 | 21.85758 | -71.92160 | 25075 ft | 324 kts | 114° |
| 2026-05-06 23:34 | 21.84649 | -71.90052 | 25077 ft | 324 kts | 114° |
| 2026-05-06 23:34 | 21.83536 | -71.87935 | 25077 ft | 323 kts | 114° |
| 2026-05-06 23:34 | 21.82425 | -71.85823 | 25080 ft | 323 kts | 114° |
| 2026-05-06 23:35 | 21.81692 | -71.84432 | 25080 ft | 324 kts | 114° |
| 2026-05-06 23:35 | 21.80578 | -71.82315 | 25076 ft | 324 kts | 114° |
| 2026-05-06 23:35 | 21.79109 | -71.79526 | 25079 ft | 324 kts | 114° |
| 2026-05-06 23:35 | 21.77997 | -71.77417 | 25076 ft | 323 kts | 114° |
| 2026-05-06 23:36 | 21.76887 | -71.75312 | 25078 ft | 323 kts | 114° |
| 2026-05-06 23:36 | 21.76151 | -71.73918 | 25080 ft | 323 kts | 114° |
| 2026-05-06 23:36 | 21.75042 | -71.71815 | 25079 ft | 323 kts | 114° |
| 2026-05-06 23:36 | 21.73932 | -71.69712 | 25077 ft | 323 kts | 114° |
| 2026-05-06 23:37 | 21.72821 | -71.67611 | 25077 ft | 323 kts | 114° |
| 2026-05-06 23:37 | 21.71712 | -71.65510 | 25079 ft | 323 kts | 114° |
| 2026-05-06 23:37 | 21.70602 | -71.63408 | 25075 ft | 323 kts | 114° |
| 2026-05-06 23:37 | 21.69489 | -71.61303 | 25078 ft | 323 kts | 114° |
| 2026-05-06 23:38 | 21.68378 | -71.59204 | 25080 ft | 323 kts | 114° |
| 2026-05-06 23:38 | 21.67268 | -71.57105 | 25081 ft | 323 kts | 114° |
| 2026-05-06 23:38 | 21.66155 | -71.55002 | 25080 ft | 323 kts | 114° |
| 2026-05-06 23:38 | 21.65047 | -71.52909 | 25081 ft | 323 kts | 114° |
| 2026-05-06 23:39 | 21.63933 | -71.50807 | 25080 ft | 323 kts | 114° |
| 2026-05-06 23:39 | 21.62822 | -71.48710 | 25080 ft | 323 kts | 114° |
| 2026-05-06 23:39 | 21.61723 | -71.46637 | 25080 ft | 323 kts | 114° |
| 2026-05-06 23:39 | 21.60611 | -71.44541 | 25077 ft | 323 kts | 114° |
| 2026-05-06 23:40 | 21.59488 | -71.42423 | 25079 ft | 323 kts | 114° |
| 2026-05-06 23:40 | 21.58389 | -71.40353 | 25078 ft | 322 kts | 114° |
| 2026-05-06 23:40 | 21.57278 | -71.38260 | 25077 ft | 322 kts | 114° |
| 2026-05-06 23:40 | 21.56163 | -71.36163 | 25082 ft | 322 kts | 114° |
| 2026-05-06 23:41 | 21.55052 | -71.34070 | 25080 ft | 322 kts | 114° |
| 2026-05-06 23:41 | 21.53940 | -71.31979 | 25081 ft | 322 kts | 114° |
| 2026-05-06 23:41 | 21.52828 | -71.29888 | 25082 ft | 322 kts | 114° |
| 2026-05-06 23:41 | 21.51716 | -71.27797 | 25079 ft | 322 kts | 115° |
| 2026-05-06 23:42 | 21.50604 | -71.25707 | 25079 ft | 322 kts | 115° |
| 2026-05-06 23:42 | 21.49491 | -71.23618 | 25080 ft | 322 kts | 115° |
| 2026-05-06 23:42 | 21.48379 | -71.21529 | 25080 ft | 322 kts | 115° |
| 2026-05-06 23:42 | 21.47267 | -71.19442 | 25078 ft | 322 kts | 115° |
| 2026-05-06 23:43 | 21.46155 | -71.17355 | 25077 ft | 322 kts | 115° |
| 2026-05-06 23:43 | 21.45029 | -71.15275 | 25079 ft | 323 kts | 117° |
| 2026-05-06 23:43 | 21.43583 | -71.13404 | 25079 ft | 329 kts | 133° |
| 2026-05-06 23:43 | 21.41757 | -71.11903 | 25076 ft | 333 kts | 146° |
| 2026-05-06 23:44 | 21.39802 | -71.10625 | 25079 ft | 333 kts | 146° |
| 2026-05-06 23:44 | 21.37834 | -71.09322 | 25078 ft | 332 kts | 146° |
| 2026-05-06 23:44 | 21.35867 | -71.08017 | 25079 ft | 332 kts | 146° |
| 2026-05-06 23:44 | 21.33897 | -71.06717 | 25079 ft | 332 kts | 146° |
| 2026-05-06 23:45 | 21.31923 | -71.05417 | 25076 ft | 332 kts | 146° |
| 2026-05-06 23:45 | 21.29957 | -71.04119 | 25079 ft | 332 kts | 146° |
| 2026-05-06 23:45 | 21.27986 | -71.02818 | 25078 ft | 332 kts | 146° |
| 2026-05-06 23:45 | 21.26050 | -71.01541 | 25075 ft | 332 kts | 146° |
| 2026-05-06 23:46 | 21.24079 | -71.00242 | 25074 ft | 332 kts | 146° |
| 2026-05-06 23:46 | 21.22111 | -70.98946 | 25073 ft | 331 kts | 146° |
| 2026-05-06 23:46 | 21.20143 | -70.97648 | 25074 ft | 331 kts | 146° |
| 2026-05-06 23:46 | 21.18174 | -70.96352 | 25074 ft | 331 kts | 146° |
| 2026-05-06 23:47 | 21.16207 | -70.95056 | 25075 ft | 331 kts | 146° |
| 2026-05-06 23:47 | 21.14244 | -70.93765 | 25075 ft | 331 kts | 146° |
| 2026-05-06 23:47 | 21.12282 | -70.92474 | 25074 ft | 331 kts | 146° |
| 2026-05-06 23:47 | 21.10343 | -70.91198 | 25072 ft | 331 kts | 146° |
| 2026-05-06 23:48 | 21.08383 | -70.89909 | 25071 ft | 331 kts | 146° |
| 2026-05-06 23:48 | 21.06424 | -70.88621 | 25069 ft | 330 kts | 146° |
| 2026-05-06 23:48 | 21.04460 | -70.87331 | 25069 ft | 330 kts | 146° |
| 2026-05-06 23:48 | 21.02502 | -70.86045 | 25072 ft | 330 kts | 146° |
| 2026-05-06 23:49 | 21.00540 | -70.84756 | 25073 ft | 330 kts | 146° |
| 2026-05-06 23:49 | 20.98583 | -70.83471 | 25069 ft | 330 kts | 146° |
| 2026-05-06 23:49 | 20.96627 | -70.82188 | 25072 ft | 330 kts | 146° |
| 2026-05-06 23:49 | 20.94668 | -70.80902 | 25070 ft | 330 kts | 146° |
| 2026-05-06 23:50 | 20.92713 | -70.79620 | 25074 ft | 329 kts | 146° |
| 2026-05-06 23:50 | 20.88806 | -70.77058 | 25072 ft | 329 kts | 146° |
| 2026-05-06 23:50 | 20.86850 | -70.75776 | 25073 ft | 329 kts | 146° |
| 2026-05-06 23:51 | 20.84925 | -70.74515 | 25072 ft | 329 kts | 146° |
| 2026-05-06 23:51 | 20.82975 | -70.73238 | 25075 ft | 329 kts | 146° |
| 2026-05-06 23:51 | 20.81021 | -70.71959 | 25069 ft | 328 kts | 146° |
| 2026-05-06 23:51 | 20.79077 | -70.70687 | 25069 ft | 328 kts | 146° |
| 2026-05-06 23:52 | 20.77121 | -70.69407 | 25067 ft | 328 kts | 146° |
| 2026-05-06 23:52 | 20.75170 | -70.68131 | 25068 ft | 328 kts | 146° |
| 2026-05-06 23:52 | 20.73229 | -70.66862 | 25067 ft | 328 kts | 146° |
| 2026-05-06 23:52 | 20.71302 | -70.65602 | 25068 ft | 328 kts | 146° |
| 2026-05-06 23:53 | 20.69359 | -70.64332 | 25066 ft | 327 kts | 146° |
| 2026-05-06 23:53 | 20.67416 | -70.63063 | 25067 ft | 327 kts | 146° |
| 2026-05-06 23:53 | 20.65471 | -70.61792 | 25067 ft | 327 kts | 146° |
| 2026-05-06 23:53 | 20.63531 | -70.60525 | 25070 ft | 327 kts | 146° |
| 2026-05-06 23:54 | 20.61592 | -70.59260 | 25072 ft | 326 kts | 146° |
| 2026-05-06 23:54 | 20.59654 | -70.57995 | 25072 ft | 326 kts | 146° |
| 2026-05-06 23:54 | 20.57718 | -70.56732 | 25071 ft | 326 kts | 146° |
| 2026-05-06 23:54 | 20.55783 | -70.55471 | 25071 ft | 326 kts | 146° |
| 2026-05-06 23:55 | 20.53849 | -70.54210 | 25069 ft | 326 kts | 146° |
| 2026-05-06 23:55 | 20.51911 | -70.52947 | 25072 ft | 325 kts | 146° |
| 2026-05-06 23:55 | 20.49980 | -70.51689 | 25072 ft | 325 kts | 146° |
| 2026-05-06 23:55 | 20.48050 | -70.50431 | 25068 ft | 325 kts | 146° |
| 2026-05-06 23:56 | 20.46121 | -70.49175 | 25068 ft | 325 kts | 146° |
| 2026-05-06 23:56 | 20.44192 | -70.47920 | 25069 ft | 325 kts | 146° |
| 2026-05-06 23:56 | 20.42243 | -70.46651 | 24842 ft | 332 kts | 146° |
| 2026-05-06 23:56 | 20.40354 | -70.45179 | 24422 ft | 341 kts | 134° |
| 2026-05-06 23:57 | 20.38814 | -70.43240 | 23976 ft | 345 kts | 120° |
| 2026-05-06 23:57 | 20.37571 | -70.41035 | 23496 ft | 349 kts | 117° |
| 2026-05-06 23:57 | 20.36331 | -70.38825 | 23003 ft | 351 kts | 118° |
| 2026-05-06 23:57 | 20.35069 | -70.36599 | 22536 ft | 351 kts | 118° |
| 2026-05-06 23:58 | 20.33812 | -70.34371 | 22072 ft | 349 kts | 118° |
| 2026-05-06 23:58 | 20.32565 | -70.32154 | 21612 ft | 348 kts | 119° |
| 2026-05-06 23:58 | 20.31320 | -70.29946 | 21154 ft | 347 kts | 119° |
| 2026-05-06 23:58 | 20.30081 | -70.27754 | 20700 ft | 345 kts | 119° |
| 2026-05-06 23:59 | 20.28842 | -70.25562 | 20245 ft | 344 kts | 120° |
| 2026-05-06 23:59 | 20.27614 | -70.23382 | 19795 ft | 342 kts | 120° |
| 2026-05-06 23:59 | 20.26387 | -70.21210 | 19342 ft | 341 kts | 120° |
| 2026-05-06 23:59 | 20.25183 | -70.19079 | 18902 ft | 340 kts | 120° |
| 2026-05-07 00:00 | 20.23967 | -70.16929 | 18456 ft | 338 kts | 120° |
| 2026-05-07 00:00 | 20.22756 | -70.14788 | 17970 ft | 336 kts | 121° |
| 2026-05-07 00:00 | 20.21553 | -70.12662 | 17527 ft | 333 kts | 121° |
| 2026-05-07 00:00 | 20.20363 | -70.10558 | 17087 ft | 330 kts | 121° |
| 2026-05-07 00:01 | 20.19185 | -70.08478 | 16658 ft | 328 kts | 121° |
| 2026-05-07 00:01 | 20.17844 | -70.06536 | 16223 ft | 325 kts | 134° |
| 2026-05-07 00:01 | 20.16133 | -70.05018 | 16069 ft | 314 kts | 147° |
| 2026-05-07 00:01 | 20.14241 | -70.03966 | 16070 ft | 302 kts | 158° |
| 2026-05-07 00:02 | 20.12342 | -70.03076 | 16064 ft | 295 kts | 157° |
| 2026-05-07 00:02 | 20.10481 | -70.02180 | 16060 ft | 291 kts | 157° |
| 2026-05-07 00:02 | 20.08643 | -70.01309 | 16057 ft | 288 kts | 158° |
| 2026-05-07 00:02 | 20.06816 | -70.00453 | 16054 ft | 286 kts | 158° |
| 2026-05-07 00:03 | 20.05002 | -69.99598 | 16053 ft | 284 kts | 158° |
| 2026-05-07 00:03 | 20.03193 | -69.98743 | 16055 ft | 284 kts | 158° |
| 2026-05-07 00:03 | 20.01412 | -69.97902 | 16053 ft | 283 kts | 158° |
| 2026-05-07 00:03 | 19.99614 | -69.97054 | 16056 ft | 283 kts | 158° |
| 2026-05-07 00:04 | 19.97807 | -69.96202 | 16005 ft | 284 kts | 158° |
| 2026-05-07 00:04 | 19.96004 | -69.95350 | 16007 ft | 283 kts | 158° |
| 2026-05-07 00:04 | 19.94204 | -69.94503 | 16007 ft | 283 kts | 158° |
| 2026-05-07 00:04 | 19.92403 | -69.93655 | 16005 ft | 282 kts | 158° |
| 2026-05-07 00:05 | 19.90609 | -69.92809 | 16003 ft | 282 kts | 158° |
| 2026-05-07 00:05 | 19.88816 | -69.91964 | 16000 ft | 282 kts | 158° |
| 2026-05-07 00:05 | 19.87023 | -69.91120 | 16001 ft | 282 kts | 158° |
| 2026-05-07 00:05 | 19.85227 | -69.90274 | 16000 ft | 282 kts | 158° |
| 2026-05-07 00:06 | 19.83439 | -69.89433 | 15999 ft | 282 kts | 158° |
| 2026-05-07 00:06 | 19.81645 | -69.88589 | 15995 ft | 281 kts | 158° |
| 2026-05-07 00:06 | 19.79859 | -69.87739 | 15998 ft | 281 kts | 155° |
| 2026-05-07 00:06 | 19.78247 | -69.86562 | 15997 ft | 282 kts | 140° |
| 2026-05-07 00:07 | 19.76750 | -69.85212 | 16000 ft | 282 kts | 141° |
| 2026-05-07 00:07 | 19.75252 | -69.83902 | 15999 ft | 282 kts | 141° |
| 2026-05-07 00:07 | 19.73740 | -69.82574 | 16002 ft | 282 kts | 141° |
| 2026-05-07 00:07 | 19.72234 | -69.81237 | 16000 ft | 282 kts | 141° |
| 2026-05-07 00:08 | 19.70723 | -69.79900 | 16001 ft | 282 kts | 141° |
| 2026-05-07 00:08 | 19.69211 | -69.78566 | 16000 ft | 282 kts | 141° |
| 2026-05-07 00:08 | 19.67703 | -69.77232 | 15999 ft | 282 kts | 141° |
| 2026-05-07 00:08 | 19.66190 | -69.75897 | 16000 ft | 282 kts | 141° |
| 2026-05-07 00:09 | 19.64680 | -69.74565 | 15999 ft | 282 kts | 141° |
| 2026-05-07 00:09 | 19.63169 | -69.73229 | 16001 ft | 282 kts | 141° |
| 2026-05-07 00:09 | 19.61660 | -69.71899 | 15999 ft | 282 kts | 141° |
| 2026-05-07 00:09 | 19.60153 | -69.70569 | 15997 ft | 282 kts | 141° |
| 2026-05-07 00:10 | 19.58642 | -69.69238 | 15998 ft | 282 kts | 141° |
| 2026-05-07 00:10 | 19.57152 | -69.67923 | 15997 ft | 282 kts | 141° |
| 2026-05-07 00:10 | 19.55640 | -69.66590 | 15997 ft | 283 kts | 141° |
| 2026-05-07 00:10 | 19.54127 | -69.65258 | 15997 ft | 283 kts | 141° |
| 2026-05-07 00:11 | 19.52612 | -69.63922 | 15995 ft | 283 kts | 141° |
| 2026-05-07 00:11 | 19.51099 | -69.62590 | 15995 ft | 283 kts | 141° |
| 2026-05-07 00:11 | 19.49588 | -69.61258 | 15994 ft | 282 kts | 141° |
| 2026-05-07 00:11 | 19.48069 | -69.59923 | 15992 ft | 282 kts | 141° |
| 2026-05-07 00:12 | 19.46559 | -69.58593 | 15995 ft | 282 kts | 141° |
| 2026-05-07 00:12 | 19.45066 | -69.57279 | 15995 ft | 282 kts | 141° |
| 2026-05-07 00:12 | 19.43554 | -69.55948 | 15995 ft | 282 kts | 141° |
| 2026-05-07 00:12 | 19.42044 | -69.54621 | 15993 ft | 282 kts | 141° |
| 2026-05-07 00:13 | 19.40535 | -69.53294 | 15992 ft | 282 kts | 141° |
| 2026-05-07 00:13 | 19.39022 | -69.51963 | 15993 ft | 281 kts | 141° |
| 2026-05-07 00:13 | 19.37517 | -69.50640 | 15994 ft | 281 kts | 141° |
| 2026-05-07 00:13 | 19.36008 | -69.49316 | 15994 ft | 281 kts | 141° |
| 2026-05-07 00:14 | 19.34522 | -69.48009 | 15996 ft | 281 kts | 141° |
| 2026-05-07 00:14 | 19.33003 | -69.46676 | 15996 ft | 280 kts | 141° |
| 2026-05-07 00:14 | 19.31521 | -69.45375 | 15996 ft | 280 kts | 141° |
| 2026-05-07 00:14 | 19.30018 | -69.44053 | 15994 ft | 280 kts | 141° |
| 2026-05-07 00:15 | 19.28515 | -69.42736 | 15998 ft | 281 kts | 141° |
| 2026-05-07 00:15 | 19.27010 | -69.41416 | 15998 ft | 281 kts | 141° |
| 2026-05-07 00:15 | 19.25506 | -69.40096 | 16000 ft | 281 kts | 141° |
| 2026-05-07 00:15 | 19.24003 | -69.38778 | 16001 ft | 280 kts | 141° |
| 2026-05-07 00:16 | 19.22500 | -69.37463 | 15998 ft | 280 kts | 141° |
| 2026-05-07 00:16 | 19.21001 | -69.36145 | 16003 ft | 279 kts | 141° |
| 2026-05-07 00:16 | 19.19505 | -69.34835 | 16002 ft | 279 kts | 141° |
| 2026-05-07 00:16 | 19.18011 | -69.33528 | 16003 ft | 278 kts | 141° |
| 2026-05-07 00:17 | 19.16517 | -69.32219 | 16003 ft | 278 kts | 141° |
| 2026-05-07 00:17 | 19.15029 | -69.30915 | 16003 ft | 278 kts | 141° |
| 2026-05-07 00:17 | 19.13542 | -69.29614 | 16002 ft | 277 kts | 141° |
| 2026-05-07 00:17 | 19.12056 | -69.28312 | 16004 ft | 277 kts | 141° |
| 2026-05-07 00:18 | 19.10586 | -69.27028 | 16000 ft | 277 kts | 141° |
| 2026-05-07 00:18 | 19.09102 | -69.25729 | 16007 ft | 277 kts | 141° |
| 2026-05-07 00:18 | 19.07618 | -69.24430 | 16003 ft | 277 kts | 141° |
| 2026-05-07 00:18 | 19.06127 | -69.23127 | 16001 ft | 277 kts | 141° |
| 2026-05-07 00:19 | 19.04643 | -69.21831 | 16003 ft | 277 kts | 141° |
| 2026-05-07 00:19 | 19.03159 | -69.20534 | 16006 ft | 277 kts | 141° |
| 2026-05-07 00:19 | 19.01675 | -69.19237 | 16004 ft | 277 kts | 141° |
| 2026-05-07 00:19 | 19.00188 | -69.17938 | 16006 ft | 277 kts | 141° |
| 2026-05-07 00:20 | 18.98720 | -69.16656 | 16005 ft | 277 kts | 141° |
| 2026-05-07 00:20 | 18.97293 | -69.15285 | 16006 ft | 277 kts | 130° |
| 2026-05-07 00:20 | 18.96252 | -69.13577 | 16008 ft | 277 kts | 117° |
| 2026-05-07 00:20 | 18.95345 | -69.11778 | 16005 ft | 277 kts | 118° |
| 2026-05-07 00:21 | 18.94428 | -69.09989 | 16008 ft | 277 kts | 118° |
| 2026-05-07 00:21 | 18.93511 | -69.08195 | 16008 ft | 277 kts | 118° |
| 2026-05-07 00:21 | 18.92595 | -69.06399 | 16011 ft | 277 kts | 118° |
| 2026-05-07 00:21 | 18.91692 | -69.04631 | 16014 ft | 277 kts | 118° |
| 2026-05-07 00:22 | 18.90775 | -69.02835 | 16018 ft | 277 kts | 118° |
| 2026-05-07 00:22 | 18.89861 | -69.01045 | 16015 ft | 278 kts | 118° |
| 2026-05-07 00:22 | 18.88944 | -68.99251 | 16016 ft | 278 kts | 118° |
| 2026-05-07 00:22 | 18.88017 | -68.97439 | 15758 ft | 287 kts | 118° |
| 2026-05-07 00:23 | 18.87039 | -68.95524 | 15060 ft | 305 kts | 118° |
| 2026-05-07 00:23 | 18.86011 | -68.93514 | 14316 ft | 315 kts | 118° |
| 2026-05-07 00:23 | 18.85315 | -68.92153 | 13801 ft | 318 kts | 118° |
| 2026-05-07 00:23 | 18.84266 | -68.90105 | 13015 ft | 313 kts | 118° |
| 2026-05-07 00:24 | 18.83246 | -68.88115 | 12282 ft | 304 kts | 118° |
| 2026-05-07 00:24 | 18.81738 | -68.85661 | 11336 ft | 298 kts | 126° |
| 2026-05-07 00:24 | 18.80914 | -68.84470 | 10856 ft | 296 kts | 125° |
| 2026-05-07 00:24 | 18.79745 | -68.82719 | 10164 ft | 294 kts | 124° |
| 2026-05-07 00:25 | 18.78574 | -68.80959 | 9441 ft | 291 kts | 124° |
| 2026-05-07 00:25 | 18.77412 | -68.79224 | 8743 ft | 286 kts | 124° |
| 2026-05-07 00:25 | 18.76270 | -68.77520 | 8062 ft | 281 kts | 125° |
| 2026-05-07 00:25 | 18.75145 | -68.75856 | 7402 ft | 276 kts | 125° |
| 2026-05-07 00:26 | 18.74040 | -68.74214 | 6741 ft | 272 kts | 125° |
| 2026-05-07 00:26 | 18.72958 | -68.72592 | 6078 ft | 267 kts | 126° |
| 2026-05-07 00:26 | 18.71894 | -68.71012 | 5452 ft | 261 kts | 126° |
| 2026-05-07 00:26 | 18.70847 | -68.69461 | 4821 ft | 258 kts | 126° |
| 2026-05-07 00:27 | 18.69831 | -68.67946 | 4211 ft | 254 kts | 126° |
| 2026-05-07 00:27 | 18.68924 | -68.66407 | 4033 ft | 238 kts | 119° |
| 2026-05-07 00:27 | 18.68154 | -68.64920 | 4026 ft | 225 kts | 120° |
| 2026-05-07 00:27 | 18.67394 | -68.63504 | 4021 ft | 219 kts | 120° |
| 2026-05-07 00:28 | 18.66660 | -68.62134 | 4027 ft | 211 kts | 120° |
| 2026-05-07 00:28 | 18.65954 | -68.60802 | 4025 ft | 205 kts | 120° |
| 2026-05-07 00:28 | 18.65267 | -68.59511 | 4023 ft | 198 kts | 120° |
| 2026-05-07 00:28 | 18.64606 | -68.58263 | 4027 ft | 193 kts | 120° |
| 2026-05-07 00:29 | 18.63854 | -68.57106 | 4026 ft | 192 kts | 134° |
| 2026-05-07 00:29 | 18.62778 | -68.56274 | 4020 ft | 192 kts | 152° |
| 2026-05-07 00:30 | 18.58799 | -68.55572 | 3510 ft | 192 kts | 166° |
| 2026-05-07 00:30 | 18.57589 | -68.55068 | 3278 ft | 184 kts | 148° |
| 2026-05-07 00:30 | 18.56617 | -68.54247 | 3058 ft | 171 kts | 132° |
| 2026-05-07 00:30 | 18.55955 | -68.53264 | 2868 ft | 165 kts | 118° |
| 2026-05-07 00:31 | 18.55561 | -68.52125 | 2669 ft | 167 kts | 103° |
| 2026-05-07 00:31 | 18.55473 | -68.50889 | 2449 ft | 169 kts | 87° |
| 2026-05-07 00:31 | 18.55590 | -68.49675 | 2258 ft | 163 kts | 86° |
| 2026-05-07 00:31 | 18.55682 | -68.48534 | 2079 ft | 150 kts | 86° |
| 2026-05-07 00:32 | 18.55774 | -68.47498 | 1897 ft | 136 kts | 85° |
| 2026-05-07 00:32 | 18.55857 | -68.46530 | 1752 ft | 127 kts | 85° |
| 2026-05-07 00:32 | 18.55932 | -68.45660 | 1745 ft | 108 kts | 86° |
| 2026-05-07 00:32 | 18.55996 | -68.44939 | 1749 ft | 93 kts | 86° |
| 2026-05-07 00:33 | 18.56070 | -68.44263 | 1713 ft | 94 kts | 83° |
| 2026-05-07 00:33 | 18.56163 | -68.43566 | 1603 ft | 97 kts | 84° |
| 2026-05-07 00:33 | 18.56239 | -68.42865 | 1476 ft | 97 kts | 86° |
| 2026-05-07 00:33 | 18.56273 | -68.42144 | 1303 ft | 99 kts | 89° |
| 2026-05-07 00:34 | 18.56305 | -68.41439 | 1097 ft | 95 kts | 89° |
| 2026-05-07 00:34 | 18.56342 | -68.40748 | 911 ft | 98 kts | 85° |
| 2026-05-07 00:34 | 18.56425 | -68.40061 | 724 ft | 93 kts | 85° |
| 2026-05-07 00:34 | 18.56483 | -68.39365 | 508 ft | 96 kts | 87° |
| 2026-05-07 00:35 | 18.56551 | -68.38659 | 286 ft | 96 kts | 86° |
| 2026-05-07 00:35 | 18.56605 | -68.37969 | 132 ft | 91 kts | 86° |
| 2026-05-07 00:35 | 18.56656 | -68.37335 | 48 ft | 80 kts | 85° |
| 2026-05-07 00:35 | 18.56698 | -68.36867 | 49 ft | 26 kts | 83° |
| 2026-05-07 00:36 | 18.56662 | -68.36764 | 48 ft | 16 kts | 173° |
| 2026-05-07 00:36 | 18.56566 | -68.36759 | 47 ft | 16 kts | 186° |
| 2026-05-07 00:36 | 18.56518 | -68.36868 | 47 ft | 20 kts | 263° |
| 2026-05-07 00:36 | 18.56508 | -68.37036 | 48 ft | 24 kts | 267° |
| 2026-05-07 00:37 | 18.56488 | -68.37238 | 48 ft | 31 kts | 264° |
| 2026-05-07 00:37 | 18.56468 | -68.37429 | 49 ft | 25 kts | 263° |
| 2026-05-07 00:37 | 18.56453 | -68.37592 | 49 ft | 14 kts | 263° |
| 2026-05-07 00:37 | 18.56374 | -68.37627 | 49 ft | 12 kts | 167° |
| 2026-05-07 00:38 | 18.56358 | -68.37539 | 49 ft | 9 kts | 100° |
| 2026-05-07 00:38 | 18.56352 | -68.37451 | 49 ft | 12 kts | 74° |
| 2026-05-07 00:38 | 18.56366 | -68.37425 | 49 ft | 0 kts | 51° |